createdAt,value
2019-03-23T00:01:47.772Z,38.96
2019-03-23T00:06:55.460Z,38.18
2019-03-23T00:12:03.187Z,33.03
2019-03-23T00:17:10.958Z,32.85
2019-03-23T00:22:18.553Z,32.27
2019-03-23T00:27:26.288Z,30.85
2019-03-23T00:32:33.969Z,29.01
2019-03-23T00:37:41.753Z,28.88
2019-03-23T00:42:50.217Z,28.28
2019-03-23T00:47:57.837Z,29.02
2019-03-23T00:53:05.600Z,30.81
2019-03-23T00:58:13.617Z,29.65
2019-03-23T01:03:21.341Z,29.57
2019-03-23T01:08:28.994Z,28.70
2019-03-23T01:13:36.712Z,30.10
2019-03-23T01:18:44.333Z,30.55
2019-03-23T01:23:51.978Z,31.03
2019-03-23T01:28:59.717Z,29.65
2019-03-23T01:34:07.455Z,28.09
2019-03-23T01:39:15.112Z,28.83
2019-03-23T01:44:22.669Z,27.60
2019-03-23T01:49:30.303Z,27.54
2019-03-23T01:54:38.091Z,28.46
2019-03-23T01:59:45.713Z,29.00
2019-03-23T02:04:53.411Z,29.07
2019-03-23T02:10:01.134Z,28.94
2019-03-23T02:15:08.846Z,30.17
2019-03-23T02:20:16.616Z,33.15
2019-03-23T02:25:24.442Z,33.19
2019-03-23T02:30:32.088Z,34.35
2019-03-23T02:35:39.794Z,36.18
2019-03-23T02:40:47.738Z,33.97
2019-03-23T02:45:55.419Z,34.61
2019-03-23T02:51:03.172Z,35.82
2019-03-23T02:56:10.911Z,35.96
2019-03-23T03:01:18.536Z,53.25
2019-03-23T03:06:26.335Z,36.41
2019-03-23T03:11:33.961Z,35.06
2019-03-23T03:16:41.539Z,33.80
2019-03-23T03:21:49.363Z,33.19
2019-03-23T03:26:57.030Z,31.94
2019-03-23T03:32:04.855Z,32.50
2019-03-23T03:37:12.537Z,31.81
2019-03-23T03:42:20.233Z,32.58
2019-03-23T03:47:27.837Z,31.78
2019-03-23T03:52:35.909Z,32.15
2019-03-23T03:57:43.621Z,32.38
2019-03-23T04:02:51.353Z,31.46
2019-03-23T04:08:10.418Z,31.88
2019-03-23T04:13:06.233Z,45.96
2019-03-23T04:18:13.898Z,30.96
2019-03-23T04:23:21.606Z,31.82
2019-03-23T04:28:29.383Z,31.55
2019-03-23T04:33:37.140Z,31.68
2019-03-23T04:38:44.892Z,30.67
2019-03-23T04:43:52.529Z,30.78
2019-03-23T04:49:00.266Z,31.22
2019-03-23T04:54:07.889Z,30.41
2019-03-23T04:59:15.565Z,30.67
2019-03-23T05:04:23.301Z,29.93
2019-03-23T05:09:31.072Z,30.00
2019-03-23T05:14:38.706Z,30.52
2019-03-23T05:19:46.545Z,30.29
2019-03-23T05:24:54.262Z,31.18
2019-03-23T05:30:02.112Z,30.71
2019-03-23T05:35:09.827Z,30.30
2019-03-23T05:40:18.452Z,30.18
2019-03-23T05:45:26.144Z,29.88
2019-03-23T05:50:33.926Z,30.20
2019-03-23T05:55:41.645Z,30.80
2019-03-23T06:00:49.485Z,30.09
2019-03-23T06:05:57.177Z,30.24
2019-03-23T06:11:05.651Z,29.73
2019-03-23T06:16:13.341Z,30.80
2019-03-23T06:21:21.066Z,30.57
2019-03-23T06:26:28.782Z,30.22
2019-03-23T06:31:55.383Z,32.02
2019-03-23T06:37:03.029Z,30.77
2019-03-23T06:42:11.730Z,30.92
2019-03-23T06:47:19.370Z,30.84
2019-03-23T06:52:27.083Z,29.76
2019-03-23T06:57:34.716Z,31.58
2019-03-23T07:02:42.488Z,30.58
2019-03-23T07:07:50.097Z,30.56
2019-03-23T07:12:57.915Z,29.61
2019-03-23T07:18:05.610Z,29.39
2019-03-23T07:23:13.509Z,30.38
2019-03-23T07:28:21.101Z,31.18
2019-03-23T07:33:28.943Z,30.19
2019-03-23T07:38:36.533Z,30.12
2019-03-23T07:43:44.250Z,29.23
2019-03-23T07:48:51.987Z,29.92
2019-03-23T07:53:59.757Z,30.43
2019-03-23T07:59:07.462Z,29.67
2019-03-23T08:04:15.254Z,29.07
2019-03-23T08:09:23.618Z,29.93
2019-03-23T08:14:30.242Z,28.93
2019-03-23T08:19:37.949Z,29.10
2019-03-23T08:24:45.614Z,30.30
2019-03-23T08:29:53.197Z,30.24
2019-03-23T08:35:00.945Z,29.79
2019-03-23T08:40:08.680Z,29.36
2019-03-23T08:45:16.381Z,29.44
2019-03-23T08:50:24.013Z,29.16
2019-03-23T08:55:31.754Z,29.72
2019-03-23T09:00:39.610Z,28.99
2019-03-23T09:05:47.065Z,29.01
2019-03-23T09:10:55.081Z,28.80
2019-03-23T09:16:02.819Z,28.13
2019-03-23T09:21:12.894Z,42.07
2019-03-23T09:26:17.968Z,28.37
2019-03-23T09:31:25.730Z,27.30
2019-03-23T09:36:33.427Z,27.56
2019-03-23T09:41:41.696Z,27.91
2019-03-23T09:46:49.401Z,28.03
2019-03-23T09:51:57.058Z,27.48
2019-03-23T09:57:04.706Z,27.19
2019-03-23T10:02:12.582Z,26.85
2019-03-23T10:07:20.583Z,27.35
2019-03-23T10:12:28.409Z,28.69
2019-03-23T10:17:36.119Z,28.02
2019-03-23T10:22:43.890Z,28.29
2019-03-23T10:27:51.538Z,28.43
2019-03-23T10:32:59.333Z,27.75
2019-03-23T10:38:07.096Z,28.07
2019-03-23T10:43:14.862Z,29.17
2019-03-23T10:48:22.890Z,28.74
2019-03-23T10:53:30.744Z,29.27
2019-03-23T10:58:38.445Z,28.64
2019-03-23T11:03:46.101Z,27.66
2019-03-23T11:08:53.852Z,28.34
2019-03-23T11:14:01.493Z,28.18
2019-03-23T11:19:13.308Z,28.26
2019-03-23T11:24:16.496Z,27.72
2019-03-23T11:29:24.121Z,27.77
2019-03-23T11:34:31.864Z,27.76
2019-03-23T11:39:39.506Z,26.96
2019-03-23T11:44:47.308Z,28.34
2019-03-23T11:49:54.921Z,27.61
2019-03-23T11:55:03.385Z,27.36
2019-03-23T12:00:11.373Z,27.33
2019-03-23T12:05:19.809Z,27.05
2019-03-23T12:10:28.316Z,28.09
2019-03-23T12:15:35.985Z,28.27
2019-03-23T12:20:43.681Z,27.30
2019-03-23T12:25:51.425Z,27.41
2019-03-23T12:30:59.065Z,26.97
2019-03-23T12:36:06.944Z,26.32
2019-03-23T12:41:22.774Z,23.80
2019-03-23T12:46:21.986Z,19.89
2019-03-23T12:51:29.610Z,16.79
2019-03-23T12:56:37.497Z,15.14
2019-03-23T13:01:45.239Z,14.56
2019-03-23T13:06:52.990Z,11.25
2019-03-23T13:12:00.601Z,7.15
2019-03-23T13:17:08.273Z,4.45
2019-03-23T13:22:16.005Z,4.50
2019-03-23T13:27:23.674Z,4.20
2019-03-23T13:32:31.363Z,4.09
2019-03-23T13:37:39.201Z,4.03
2019-03-23T13:42:46.982Z,3.68
2019-03-23T13:47:55.047Z,3.77
2019-03-23T13:53:02.693Z,3.76
2019-03-23T13:58:10.453Z,3.43
2019-03-23T14:03:18.198Z,3.27
2019-03-23T14:08:26.047Z,3.09
2019-03-23T14:13:33.666Z,3.24
2019-03-23T14:18:41.633Z,2.88
2019-03-23T14:23:49.584Z,2.43
2019-03-23T14:28:57.434Z,1.87
2019-03-23T14:34:05.049Z,2.50
2019-03-23T14:39:12.810Z,2.14
2019-03-23T14:44:20.433Z,2.36
2019-03-23T14:49:28.055Z,2.45
2019-03-23T14:54:35.762Z,2.25
2019-03-23T14:59:43.610Z,2.34
2019-03-23T15:04:51.326Z,2.44
2019-03-23T15:09:59.198Z,2.83
2019-03-23T15:15:07.010Z,2.82
2019-03-23T15:20:14.762Z,2.73
2019-03-23T15:25:22.380Z,2.51
2019-03-23T15:30:30.230Z,2.92
2019-03-23T15:35:38.055Z,2.42
2019-03-23T15:40:46.204Z,2.32
2019-03-23T15:45:53.798Z,2.55
2019-03-23T15:51:01.493Z,2.29
2019-03-23T15:56:09.144Z,2.91
2019-03-23T16:01:16.834Z,2.94
2019-03-23T16:06:24.584Z,3.17
2019-03-23T16:11:32.329Z,3.08
2019-03-23T16:16:40.385Z,2.61
2019-03-23T16:21:48.974Z,2.80
2019-03-23T16:26:56.694Z,2.63
2019-03-23T16:32:04.338Z,2.53
2019-03-23T16:37:12.034Z,2.57
2019-03-23T16:42:19.681Z,3.14
2019-03-23T16:47:27.382Z,2.95
2019-03-23T16:52:35.047Z,3.36
2019-03-23T16:57:42.693Z,2.63
2019-03-23T17:02:50.488Z,3.40
2019-03-23T17:07:58.494Z,4.75
2019-03-23T17:13:06.226Z,3.32
2019-03-23T17:18:14.298Z,3.04
2019-03-23T17:23:21.957Z,3.52
2019-03-23T17:28:29.588Z,3.47
2019-03-23T17:33:37.271Z,3.66
2019-03-23T17:38:44.930Z,3.06
2019-03-23T17:43:52.596Z,3.06
2019-03-23T17:49:00.185Z,3.11
2019-03-23T17:54:07.988Z,2.74
2019-03-23T17:59:15.757Z,3.13
2019-03-23T18:04:23.450Z,3.57
2019-03-23T18:09:31.084Z,3.35
2019-03-23T18:14:38.804Z,3.82
2019-03-23T18:19:46.494Z,3.89
2019-03-23T18:24:54.357Z,3.80
2019-03-23T18:30:02.117Z,3.59
2019-03-23T18:35:09.804Z,3.19
2019-03-23T18:40:17.444Z,3.55
2019-03-23T18:45:25.197Z,3.92
2019-03-23T18:50:32.813Z,3.71
2019-03-23T18:55:40.546Z,4.49
2019-03-23T19:00:48.335Z,4.34
2019-03-23T19:05:56.338Z,4.85
2019-03-23T19:11:04.057Z,4.70
2019-03-23T19:16:11.866Z,5.01
2019-03-23T19:21:19.491Z,4.55
2019-03-23T19:26:27.261Z,4.70
2019-03-23T19:31:34.869Z,5.24
2019-03-23T19:36:42.546Z,7.60
2019-03-23T19:41:50.192Z,6.69
2019-03-23T19:46:57.895Z,5.48
2019-03-23T19:52:05.487Z,7.69
2019-03-23T19:57:13.117Z,6.82
2019-03-23T20:02:20.802Z,6.88
2019-03-23T20:07:33.231Z,7.48
2019-03-23T20:12:36.543Z,6.10
2019-03-23T20:17:44.430Z,5.79
2019-03-23T20:22:52.058Z,5.60
2019-03-23T20:28:00.482Z,5.47
2019-03-23T20:33:18.721Z,5.67
2019-03-23T20:38:15.389Z,6.48
2019-03-23T20:43:23.121Z,5.71
2019-03-23T20:48:30.885Z,6.13
2019-03-23T20:53:38.566Z,5.63
2019-03-23T20:58:46.321Z,5.37
2019-03-23T21:03:54.022Z,4.99
2019-03-23T21:09:01.797Z,5.08
2019-03-23T21:14:19.613Z,5.10
2019-03-23T21:19:16.662Z,4.89
2019-03-23T21:24:24.446Z,5.04
2019-03-23T21:29:32.078Z,5.10
2019-03-23T21:34:39.749Z,5.32
2019-03-23T21:39:47.501Z,5.14
2019-03-23T21:44:55.213Z,5.05
2019-03-23T21:50:02.913Z,5.14
2019-03-23T21:55:10.593Z,5.71
2019-03-23T22:00:18.230Z,5.33
2019-03-23T22:05:26.115Z,5.13
2019-03-23T22:10:33.693Z,5.05
2019-03-23T22:15:41.406Z,5.59
2019-03-23T22:20:49.449Z,4.93
2019-03-23T22:25:57.218Z,5.36
2019-03-23T22:31:04.950Z,5.51
2019-03-23T22:36:12.701Z,5.56
2019-03-23T22:41:20.340Z,5.85
2019-03-23T22:46:28.032Z,5.67
2019-03-23T22:51:35.798Z,4.87
2019-03-23T22:56:43.527Z,5.28
2019-03-23T23:01:51.241Z,5.00
2019-03-23T23:06:58.909Z,5.50
2019-03-23T23:12:06.733Z,5.59
2019-03-23T23:17:14.392Z,5.41
2019-03-23T23:22:22.091Z,5.16
2019-03-23T23:27:29.725Z,5.36
2019-03-23T23:32:37.413Z,5.35
2019-03-23T23:37:45.125Z,4.70
2019-03-23T23:42:52.913Z,5.61
2019-03-23T23:48:00.601Z,5.38
2019-03-23T23:53:08.301Z,5.30
2019-03-23T23:58:15.965Z,5.21
